sensor_id;sensor_type;location;lat;lon;timestamp;P1;durP1;ratioP1;P2;durP2;ratioP2
72676;SDS011;60755;51.374;10.662;2022-10-16T00:01:40;2.53;;;2.43;;
72676;SDS011;60755;51.374;10.662;2022-10-16T00:04:08;3.00;;;2.80;;
72676;SDS011;60755;51.374;10.662;2022-10-16T00:06:35;2.60;;;2.50;;
72676;SDS011;60755;51.374;10.662;2022-10-16T00:09:02;2.60;;;2.50;;
72676;SDS011;60755;51.374;10.662;2022-10-16T00:11:31;2.70;;;2.60;;
72676;SDS011;60755;51.374;10.662;2022-10-16T00:14:01;2.70;;;2.60;;
72676;SDS011;60755;51.374;10.662;2022-10-16T00:16:30;2.67;;;2.57;;
72676;SDS011;60755;51.374;10.662;2022-10-16T00:18:57;5.45;;;2.83;;
72676;SDS011;60755;51.374;10.662;2022-10-16T00:21:25;2.80;;;2.70;;
72676;SDS011;60755;51.374;10.662;2022-10-16T00:23:54;3.30;;;3.10;;
72676;SDS011;60755;51.374;10.662;2022-10-16T00:26:22;2.80;;;2.60;;
72676;SDS011;60755;51.374;10.662;2022-10-16T00:28:50;3.00;;;2.78;;
72676;SDS011;60755;51.374;10.662;2022-10-16T00:31:18;2.90;;;2.80;;
72676;SDS011;60755;51.374;10.662;2022-10-16T00:33:46;4.00;;;2.92;;
72676;SDS011;60755;51.374;10.662;2022-10-16T00:36:13;3.77;;;2.80;;
72676;SDS011;60755;51.374;10.662;2022-10-16T00:38:43;3.80;;;2.45;;
72676;SDS011;60755;51.374;10.662;2022-10-16T00:41:11;2.40;;;2.30;;
72676;SDS011;60755;51.374;10.662;2022-10-16T00:43:40;2.80;;;2.73;;
72676;SDS011;60755;51.374;10.662;2022-10-16T00:46:13;2.70;;;2.60;;
72676;SDS011;60755;51.374;10.662;2022-10-16T00:48:42;3.17;;;2.90;;
72676;SDS011;60755;51.374;10.662;2022-10-16T00:51:11;3.20;;;3.00;;
72676;SDS011;60755;51.374;10.662;2022-10-16T00:53:38;2.80;;;2.60;;
72676;SDS011;60755;51.374;10.662;2022-10-16T00:56:04;3.43;;;3.20;;
72676;SDS011;60755;51.374;10.662;2022-10-16T00:58:31;3.33;;;3.17;;
72676;SDS011;60755;51.374;10.662;2022-10-16T01:00:58;3.40;;;3.20;;
72676;SDS011;60755;51.374;10.662;2022-10-16T01:03:27;3.43;;;3.33;;
72676;SDS011;60755;51.374;10.662;2022-10-16T01:05:59;3.92;;;3.63;;
72676;SDS011;60755;51.374;10.662;2022-10-16T01:08:42;3.50;;;3.20;;
72676;SDS011;60755;51.374;10.662;2022-10-16T01:11:17;3.40;;;3.20;;
72676;SDS011;60755;51.374;10.662;2022-10-16T01:13:50;3.00;;;2.90;;
72676;SDS011;60755;51.374;10.662;2022-10-16T01:16:21;3.40;;;3.20;;
72676;SDS011;60755;51.374;10.662;2022-10-16T01:18:56;3.50;;;3.30;;
72676;SDS011;60755;51.374;10.662;2022-10-16T01:21:29;3.30;;;3.05;;
72676;SDS011;60755;51.374;10.662;2022-10-16T01:24:02;3.67;;;3.47;;
72676;SDS011;60755;51.374;10.662;2022-10-16T01:26:36;3.55;;;3.30;;
72676;SDS011;60755;51.374;10.662;2022-10-16T01:29:16;3.50;;;3.40;;
72676;SDS011;60755;51.374;10.662;2022-10-16T01:31:47;3.40;;;3.30;;
72676;SDS011;60755;51.374;10.662;2022-10-16T01:34:21;3.50;;;3.40;;
72676;SDS011;60755;51.374;10.662;2022-10-16T01:36:53;4.18;;;3.90;;
72676;SDS011;60755;51.374;10.662;2022-10-16T01:39:24;4.32;;;3.28;;
72676;SDS011;60755;51.374;10.662;2022-10-16T01:41:57;4.10;;;3.80;;
72676;SDS011;60755;51.374;10.662;2022-10-16T01:44:30;4.18;;;3.90;;
72676;SDS011;60755;51.374;10.662;2022-10-16T01:47:01;3.95;;;3.75;;
72676;SDS011;60755;51.374;10.662;2022-10-16T01:49:30;5.20;;;4.35;;
72676;SDS011;60755;51.374;10.662;2022-10-16T01:51:59;4.40;;;4.20;;
72676;SDS011;60755;51.374;10.662;2022-10-16T01:54:31;5.05;;;4.65;;
72676;SDS011;60755;51.374;10.662;2022-10-16T01:57:00;5.03;;;4.30;;
72676;SDS011;60755;51.374;10.662;2022-10-16T01:59:32;4.72;;;4.25;;
72676;SDS011;60755;51.374;10.662;2022-10-16T02:02:04;5.13;;;4.82;;
72676;SDS011;60755;51.374;10.662;2022-10-16T02:04:34;4.85;;;4.45;;
72676;SDS011;60755;51.374;10.662;2022-10-16T02:07:04;4.45;;;4.05;;
72676;SDS011;60755;51.374;10.662;2022-10-16T02:09:32;4.83;;;4.53;;
72676;SDS011;60755;51.374;10.662;2022-10-16T02:12:00;4.90;;;4.50;;
72676;SDS011;60755;51.374;10.662;2022-10-16T02:14:34;4.93;;;4.63;;
72676;SDS011;60755;51.374;10.662;2022-10-16T02:17:09;4.60;;;4.20;;
72676;SDS011;60755;51.374;10.662;2022-10-16T02:19:38;4.60;;;4.20;;
72676;SDS011;60755;51.374;10.662;2022-10-16T02:22:05;4.43;;;4.23;;
72676;SDS011;60755;51.374;10.662;2022-10-16T02:24:36;5.30;;;5.00;;
72676;SDS011;60755;51.374;10.662;2022-10-16T02:27:06;4.70;;;4.40;;
72676;SDS011;60755;51.374;10.662;2022-10-16T02:29:38;5.05;;;4.53;;
72676;SDS011;60755;51.374;10.662;2022-10-16T02:32:09;5.37;;;4.97;;
72676;SDS011;60755;51.374;10.662;2022-10-16T02:34:38;4.93;;;4.33;;
72676;SDS011;60755;51.374;10.662;2022-10-16T02:37:06;5.03;;;4.73;;
72676;SDS011;60755;51.374;10.662;2022-10-16T02:39:35;4.50;;;4.30;;
72676;SDS011;60755;51.374;10.662;2022-10-16T02:42:03;4.87;;;4.47;;
72676;SDS011;60755;51.374;10.662;2022-10-16T02:44:29;4.90;;;4.50;;
72676;SDS011;60755;51.374;10.662;2022-10-16T02:46:57;4.13;;;3.93;;
72676;SDS011;60755;51.374;10.662;2022-10-16T02:49:24;4.50;;;4.20;;
72676;SDS011;60755;51.374;10.662;2022-10-16T02:51:50;4.20;;;3.90;;
72676;SDS011;60755;51.374;10.662;2022-10-16T02:54:17;5.30;;;4.30;;
72676;SDS011;60755;51.374;10.662;2022-10-16T02:56:43;4.20;;;4.00;;
72676;SDS011;60755;51.374;10.662;2022-10-16T02:59:10;4.13;;;3.73;;
72676;SDS011;60755;51.374;10.662;2022-10-16T03:01:36;3.78;;;3.50;;
72676;SDS011;60755;51.374;10.662;2022-10-16T03:04:04;3.85;;;3.67;;
72676;SDS011;60755;51.374;10.662;2022-10-16T03:06:31;3.78;;;3.42;;
72676;SDS011;60755;51.374;10.662;2022-10-16T03:08:57;3.50;;;3.40;;
72676;SDS011;60755;51.374;10.662;2022-10-16T03:11:24;3.60;;;3.40;;
72676;SDS011;60755;51.374;10.662;2022-10-16T03:13:51;3.33;;;3.13;;
72676;SDS011;60755;51.374;10.662;2022-10-16T03:16:17;3.28;;;3.05;;
72676;SDS011;60755;51.374;10.662;2022-10-16T03:18:47;4.07;;;3.07;;
72676;SDS011;60755;51.374;10.662;2022-10-16T03:21:15;3.80;;;3.60;;
72676;SDS011;60755;51.374;10.662;2022-10-16T03:23:42;3.50;;;3.30;;
72676;SDS011;60755;51.374;10.662;2022-10-16T03:26:08;3.75;;;3.60;;
72676;SDS011;60755;51.374;10.662;2022-10-16T03:28:34;3.70;;;3.50;;
72676;SDS011;60755;51.374;10.662;2022-10-16T03:31:01;3.33;;;3.17;;
72676;SDS011;60755;51.374;10.662;2022-10-16T03:33:27;3.40;;;3.22;;
72676;SDS011;60755;51.374;10.662;2022-10-16T03:35:54;3.50;;;3.30;;
72676;SDS011;60755;51.374;10.662;2022-10-16T03:38:22;3.45;;;3.25;;
72676;SDS011;60755;51.374;10.662;2022-10-16T03:40:49;3.65;;;3.45;;
72676;SDS011;60755;51.374;10.662;2022-10-16T03:43:15;3.67;;;3.40;;
72676;SDS011;60755;51.374;10.662;2022-10-16T03:45:42;3.72;;;3.40;;
72676;SDS011;60755;51.374;10.662;2022-10-16T03:48:08;3.78;;;3.58;;
72676;SDS011;60755;51.374;10.662;2022-10-16T03:50:35;4.22;;;3.83;;
72676;SDS011;60755;51.374;10.662;2022-10-16T03:53:02;4.03;;;3.83;;
72676;SDS011;60755;51.374;10.662;2022-10-16T03:55:30;4.33;;;3.83;;
72676;SDS011;60755;51.374;10.662;2022-10-16T03:57:56;4.07;;;3.87;;
72676;SDS011;60755;51.374;10.662;2022-10-16T04:00:23;4.10;;;3.80;;
72676;SDS011;60755;51.374;10.662;2022-10-16T04:02:49;4.95;;;3.88;;
72676;SDS011;60755;51.374;10.662;2022-10-16T04:05:16;3.85;;;3.65;;
72676;SDS011;60755;51.374;10.662;2022-10-16T04:07:42;4.20;;;4.00;;
72676;SDS011;60755;51.374;10.662;2022-10-16T04:10:09;4.10;;;3.90;;
72676;SDS011;60755;51.374;10.662;2022-10-16T04:12:37;4.60;;;4.30;;
72676;SDS011;60755;51.374;10.662;2022-10-16T04:15:03;4.13;;;3.90;;
72676;SDS011;60755;51.374;10.662;2022-10-16T04:17:30;4.10;;;3.90;;
72676;SDS011;60755;51.374;10.662;2022-10-16T04:19:56;4.18;;;3.83;;
72676;SDS011;60755;51.374;10.662;2022-10-16T04:22:23;4.30;;;4.10;;
72676;SDS011;60755;51.374;10.662;2022-10-16T04:24:49;4.30;;;4.10;;
72676;SDS011;60755;51.374;10.662;2022-10-16T04:27:16;4.60;;;4.30;;
72676;SDS011;60755;51.374;10.662;2022-10-16T04:29:44;3.93;;;3.73;;
72676;SDS011;60755;51.374;10.662;2022-10-16T04:32:10;4.10;;;3.90;;
72676;SDS011;60755;51.374;10.662;2022-10-16T04:34:38;4.60;;;3.88;;
72676;SDS011;60755;51.374;10.662;2022-10-16T04:37:05;4.43;;;4.07;;
72676;SDS011;60755;51.374;10.662;2022-10-16T04:39:32;6.00;;;4.00;;
72676;SDS011;60755;51.374;10.662;2022-10-16T04:41:58;4.07;;;3.87;;
72676;SDS011;60755;51.374;10.662;2022-10-16T04:44:25;4.70;;;4.30;;
72676;SDS011;60755;51.374;10.662;2022-10-16T04:46:53;4.40;;;4.20;;
72676;SDS011;60755;51.374;10.662;2022-10-16T04:49:19;4.40;;;4.10;;
72676;SDS011;60755;51.374;10.662;2022-10-16T04:51:46;5.17;;;4.80;;
72676;SDS011;60755;51.374;10.662;2022-10-16T04:54:12;4.60;;;4.17;;
72676;SDS011;60755;51.374;10.662;2022-10-16T04:56:39;4.40;;;4.10;;
72676;SDS011;60755;51.374;10.662;2022-10-16T04:59:11;4.40;;;4.20;;
72676;SDS011;60755;51.374;10.662;2022-10-16T05:01:38;4.73;;;4.40;;
72676;SDS011;60755;51.374;10.662;2022-10-16T05:04:06;4.90;;;4.23;;
72676;SDS011;60755;51.374;10.662;2022-10-16T05:06:32;4.87;;;4.57;;
72676;SDS011;60755;51.374;10.662;2022-10-16T05:08:59;4.57;;;4.27;;
72676;SDS011;60755;51.374;10.662;2022-10-16T05:11:26;4.93;;;4.63;;
72676;SDS011;60755;51.374;10.662;2022-10-16T05:13:52;5.87;;;5.30;;
72676;SDS011;60755;51.374;10.662;2022-10-16T05:16:18;5.17;;;4.67;;
72676;SDS011;60755;51.374;10.662;2022-10-16T05:18:45;5.43;;;4.93;;
72676;SDS011;60755;51.374;10.662;2022-10-16T05:21:13;5.10;;;4.60;;
72676;SDS011;60755;51.374;10.662;2022-10-16T05:23:39;4.93;;;4.63;;
72676;SDS011;60755;51.374;10.662;2022-10-16T05:26:06;4.80;;;4.50;;
72676;SDS011;60755;51.374;10.662;2022-10-16T05:28:32;5.33;;;4.57;;
72676;SDS011;60755;51.374;10.662;2022-10-16T05:30:59;5.57;;;5.00;;
72676;SDS011;60755;51.374;10.662;2022-10-16T05:33:29;4.70;;;4.50;;
72676;SDS011;60755;51.374;10.662;2022-10-16T05:35:56;4.67;;;4.27;;
72676;SDS011;60755;51.374;10.662;2022-10-16T05:38:24;4.77;;;4.47;;
72676;SDS011;60755;51.374;10.662;2022-10-16T05:40:50;4.93;;;4.53;;
72676;SDS011;60755;51.374;10.662;2022-10-16T05:43:17;5.07;;;4.32;;
72676;SDS011;60755;51.374;10.662;2022-10-16T05:45:44;4.70;;;4.40;;
72676;SDS011;60755;51.374;10.662;2022-10-16T05:48:10;4.77;;;4.33;;
72676;SDS011;60755;51.374;10.662;2022-10-16T05:50:37;4.10;;;3.83;;
72676;SDS011;60755;51.374;10.662;2022-10-16T05:53:03;4.10;;;3.90;;
72676;SDS011;60755;51.374;10.662;2022-10-16T05:55:31;4.88;;;4.47;;
72676;SDS011;60755;51.374;10.662;2022-10-16T05:57:58;5.10;;;4.70;;
72676;SDS011;60755;51.374;10.662;2022-10-16T06:00:24;4.63;;;4.10;;
72676;SDS011;60755;51.374;10.662;2022-10-16T06:02:51;4.27;;;3.87;;
72676;SDS011;60755;51.374;10.662;2022-10-16T06:05:17;4.60;;;4.30;;
72676;SDS011;60755;51.374;10.662;2022-10-16T06:07:43;4.72;;;4.43;;
72676;SDS011;60755;51.374;10.662;2022-10-16T06:10:10;4.87;;;4.57;;
72676;SDS011;60755;51.374;10.662;2022-10-16T06:12:38;5.53;;;4.95;;
72676;SDS011;60755;51.374;10.662;2022-10-16T06:15:04;5.07;;;4.67;;
72676;SDS011;60755;51.374;10.662;2022-10-16T06:17:32;5.03;;;4.53;;
72676;SDS011;60755;51.374;10.662;2022-10-16T06:19:58;4.60;;;4.20;;
72676;SDS011;60755;51.374;10.662;2022-10-16T06:22:24;7.60;;;4.38;;
72676;SDS011;60755;51.374;10.662;2022-10-16T06:24:51;4.60;;;4.30;;
72676;SDS011;60755;51.374;10.662;2022-10-16T06:27:18;4.90;;;4.15;;
72676;SDS011;60755;51.374;10.662;2022-10-16T06:29:47;4.43;;;4.10;;
72676;SDS011;60755;51.374;10.662;2022-10-16T06:32:13;6.15;;;4.20;;
72676;SDS011;60755;51.374;10.662;2022-10-16T06:34:40;5.00;;;4.70;;
72676;SDS011;60755;51.374;10.662;2022-10-16T06:37:06;6.47;;;5.97;;
72676;SDS011;60755;51.374;10.662;2022-10-16T06:39:33;5.07;;;4.77;;
72676;SDS011;60755;51.374;10.662;2022-10-16T06:41:59;6.53;;;5.65;;
72676;SDS011;60755;51.374;10.662;2022-10-16T06:44:26;5.20;;;4.90;;
72676;SDS011;60755;51.374;10.662;2022-10-16T06:46:54;6.13;;;5.55;;
72676;SDS011;60755;51.374;10.662;2022-10-16T06:49:20;5.33;;;4.93;;
72676;SDS011;60755;51.374;10.662;2022-10-16T06:51:48;4.97;;;4.60;;
72676;SDS011;60755;51.374;10.662;2022-10-16T06:54:15;5.15;;;4.75;;
72676;SDS011;60755;51.374;10.662;2022-10-16T06:56:42;7.55;;;4.63;;
72676;SDS011;60755;51.374;10.662;2022-10-16T06:59:09;4.37;;;4.03;;
72676;SDS011;60755;51.374;10.662;2022-10-16T07:01:35;4.45;;;4.15;;
72676;SDS011;60755;51.374;10.662;2022-10-16T07:04:03;4.20;;;3.90;;
72676;SDS011;60755;51.374;10.662;2022-10-16T07:06:30;3.65;;;3.45;;
72676;SDS011;60755;51.374;10.662;2022-10-16T07:08:58;4.15;;;3.95;;
72676;SDS011;60755;51.374;10.662;2022-10-16T07:11:28;3.65;;;3.45;;
72676;SDS011;60755;51.374;10.662;2022-10-16T07:13:55;3.58;;;3.28;;
72676;SDS011;60755;51.374;10.662;2022-10-16T07:16:22;3.03;;;2.92;;
72676;SDS011;60755;51.374;10.662;2022-10-16T07:18:49;3.28;;;3.08;;
72676;SDS011;60755;51.374;10.662;2022-10-16T07:21:19;3.00;;;2.80;;
72676;SDS011;60755;51.374;10.662;2022-10-16T07:23:49;2.42;;;2.33;;
72676;SDS011;60755;51.374;10.662;2022-10-16T07:26:16;2.50;;;2.28;;
72676;SDS011;60755;51.374;10.662;2022-10-16T07:28:43;10.20;;;2.47;;
72676;SDS011;60755;51.374;10.662;2022-10-16T07:31:11;3.25;;;2.60;;
72676;SDS011;60755;51.374;10.662;2022-10-16T07:33:39;3.00;;;2.80;;
72676;SDS011;60755;51.374;10.662;2022-10-16T07:36:08;1.90;;;1.90;;
72676;SDS011;60755;51.374;10.662;2022-10-16T07:38:36;1.95;;;1.80;;
72676;SDS011;60755;51.374;10.662;2022-10-16T07:41:04;1.85;;;1.80;;
72676;SDS011;60755;51.374;10.662;2022-10-16T07:43:32;1.90;;;1.80;;
72676;SDS011;60755;51.374;10.662;2022-10-16T07:45:59;1.88;;;1.77;;
72676;SDS011;60755;51.374;10.662;2022-10-16T07:48:26;1.77;;;1.67;;
72676;SDS011;60755;51.374;10.662;2022-10-16T07:50:56;3.90;;;1.63;;
72676;SDS011;60755;51.374;10.662;2022-10-16T07:53:24;1.90;;;1.80;;
72676;SDS011;60755;51.374;10.662;2022-10-16T07:55:54;3.72;;;1.70;;
72676;SDS011;60755;51.374;10.662;2022-10-16T07:58:23;1.60;;;1.60;;
72676;SDS011;60755;51.374;10.662;2022-10-16T08:00:50;2.30;;;1.75;;
72676;SDS011;60755;51.374;10.662;2022-10-16T08:03:16;3.10;;;1.88;;
72676;SDS011;60755;51.374;10.662;2022-10-16T08:05:43;1.52;;;1.52;;
72676;SDS011;60755;51.374;10.662;2022-10-16T08:08:11;1.52;;;1.52;;
72676;SDS011;60755;51.374;10.662;2022-10-16T08:10:40;3.10;;;1.55;;
72676;SDS011;60755;51.374;10.662;2022-10-16T08:13:09;1.50;;;1.50;;
72676;SDS011;60755;51.374;10.662;2022-10-16T08:15:35;1.50;;;1.40;;
72676;SDS011;60755;51.374;10.662;2022-10-16T08:18:03;1.45;;;1.15;;
72676;SDS011;60755;51.374;10.662;2022-10-16T08:20:31;1.67;;;1.40;;
72676;SDS011;60755;51.374;10.662;2022-10-16T08:22:59;1.40;;;1.30;;
72676;SDS011;60755;51.374;10.662;2022-10-16T08:25:26;1.20;;;1.20;;
72676;SDS011;60755;51.374;10.662;2022-10-16T08:27:52;1.52;;;1.52;;
72676;SDS011;60755;51.374;10.662;2022-10-16T08:30:21;1.23;;;1.23;;
72676;SDS011;60755;51.374;10.662;2022-10-16T08:32:48;1.65;;;1.20;;
72676;SDS011;60755;51.374;10.662;2022-10-16T08:35:15;1.40;;;1.30;;
72676;SDS011;60755;51.374;10.662;2022-10-16T08:37:42;1.65;;;1.60;;
72676;SDS011;60755;51.374;10.662;2022-10-16T08:40:13;2.25;;;1.40;;
72676;SDS011;60755;51.374;10.662;2022-10-16T08:43:08;2.25;;;2.05;;
72676;SDS011;60755;51.374;10.662;2022-10-16T08:48:52;1.55;;;1.50;;
72676;SDS011;60755;51.374;10.662;2022-10-16T08:51:21;1.48;;;1.20;;
72676;SDS011;60755;51.374;10.662;2022-10-16T08:53:52;1.67;;;1.65;;
72676;SDS011;60755;51.374;10.662;2022-10-16T08:56:20;1.40;;;1.40;;
72676;SDS011;60755;51.374;10.662;2022-10-16T08:58:47;1.48;;;1.48;;
72676;SDS011;60755;51.374;10.662;2022-10-16T09:01:14;1.58;;;1.58;;
72676;SDS011;60755;51.374;10.662;2022-10-16T09:03:50;1.40;;;1.30;;
72676;SDS011;60755;51.374;10.662;2022-10-16T09:06:30;1.70;;;1.60;;
72676;SDS011;60755;51.374;10.662;2022-10-16T09:09:14;1.40;;;1.30;;
72676;SDS011;60755;51.374;10.662;2022-10-16T09:11:52;1.67;;;1.20;;
72676;SDS011;60755;51.374;10.662;2022-10-16T09:14:32;1.48;;;1.48;;
72676;SDS011;60755;51.374;10.662;2022-10-16T09:17:18;1.30;;;1.30;;
72676;SDS011;60755;51.374;10.662;2022-10-16T09:19:53;2.38;;;1.48;;
72676;SDS011;60755;51.374;10.662;2022-10-16T09:22:26;2.35;;;2.25;;
72676;SDS011;60755;51.374;10.662;2022-10-16T09:24:54;1.40;;;1.40;;
72676;SDS011;60755;51.374;10.662;2022-10-16T09:27:21;1.17;;;1.15;;
72676;SDS011;60755;51.374;10.662;2022-10-16T09:29:48;2.45;;;1.30;;
72676;SDS011;60755;51.374;10.662;2022-10-16T09:32:15;1.15;;;1.10;;
72676;SDS011;60755;51.374;10.662;2022-10-16T09:34:45;1.55;;;1.17;;
72676;SDS011;60755;51.374;10.662;2022-10-16T09:37:19;1.30;;;1.30;;
72676;SDS011;60755;51.374;10.662;2022-10-16T09:39:49;1.15;;;1.15;;
72676;SDS011;60755;51.374;10.662;2022-10-16T09:42:16;1.98;;;1.20;;
72676;SDS011;60755;51.374;10.662;2022-10-16T09:44:47;0.93;;;0.93;;
72676;SDS011;60755;51.374;10.662;2022-10-16T09:47:15;2.42;;;1.10;;
72676;SDS011;60755;51.374;10.662;2022-10-16T09:49:50;1.20;;;1.20;;
72676;SDS011;60755;51.374;10.662;2022-10-16T09:52:18;3.22;;;1.17;;
72676;SDS011;60755;51.374;10.662;2022-10-16T09:54:49;1.30;;;1.30;;
72676;SDS011;60755;51.374;10.662;2022-10-16T09:57:17;1.27;;;1.27;;
72676;SDS011;60755;51.374;10.662;2022-10-16T09:59:48;1.20;;;1.20;;
72676;SDS011;60755;51.374;10.662;2022-10-16T10:02:16;1.10;;;1.10;;
72676;SDS011;60755;51.374;10.662;2022-10-16T10:04:47;1.02;;;1.02;;
72676;SDS011;60755;51.374;10.662;2022-10-16T10:07:16;1.13;;;1.13;;
72676;SDS011;60755;51.374;10.662;2022-10-16T10:09:47;1.83;;;1.30;;
72676;SDS011;60755;51.374;10.662;2022-10-16T10:12:17;1.20;;;1.20;;
72676;SDS011;60755;51.374;10.662;2022-10-16T10:14:46;4.60;;;1.00;;
72676;SDS011;60755;51.374;10.662;2022-10-16T10:17:16;1.45;;;1.08;;
72676;SDS011;60755;51.374;10.662;2022-10-16T10:19:51;1.13;;;1.02;;
72676;SDS011;60755;51.374;10.662;2022-10-16T10:22:22;1.75;;;1.10;;
72676;SDS011;60755;51.374;10.662;2022-10-16T10:24:55;0.90;;;0.90;;
72676;SDS011;60755;51.374;10.662;2022-10-16T10:27:24;1.05;;;1.00;;
72676;SDS011;60755;51.374;10.662;2022-10-16T10:29:56;0.93;;;0.93;;
72676;SDS011;60755;51.374;10.662;2022-10-16T10:32:28;1.75;;;1.20;;
72676;SDS011;60755;51.374;10.662;2022-10-16T10:35:07;2.67;;;2.47;;
72676;SDS011;60755;51.374;10.662;2022-10-16T10:37:54;1.10;;;1.10;;
72676;SDS011;60755;51.374;10.662;2022-10-16T10:40:31;1.00;;;1.00;;
72676;SDS011;60755;51.374;10.662;2022-10-16T10:43:07;1.10;;;1.10;;
72676;SDS011;60755;51.374;10.662;2022-10-16T10:45:42;0.90;;;0.90;;
72676;SDS011;60755;51.374;10.662;2022-10-16T10:48:19;1.17;;;0.90;;
72676;SDS011;60755;51.374;10.662;2022-10-16T10:50:55;0.85;;;0.85;;
72676;SDS011;60755;51.374;10.662;2022-10-16T10:53:33;1.38;;;0.90;;
72676;SDS011;60755;51.374;10.662;2022-10-16T10:56:09;2.63;;;1.10;;
72676;SDS011;60755;51.374;10.662;2022-10-16T10:58:50;1.10;;;1.10;;
72676;SDS011;60755;51.374;10.662;2022-10-16T11:01:30;1.05;;;1.05;;
72676;SDS011;60755;51.374;10.662;2022-10-16T11:04:11;1.20;;;1.00;;
72676;SDS011;60755;51.374;10.662;2022-10-16T11:07:00;0.98;;;0.98;;
72676;SDS011;60755;51.374;10.662;2022-10-16T11:09:32;4.93;;;3.60;;
72676;SDS011;60755;51.374;10.662;2022-10-16T11:12:04;1.70;;;1.60;;
72676;SDS011;60755;51.374;10.662;2022-10-16T11:14:36;2.78;;;2.60;;
72676;SDS011;60755;51.374;10.662;2022-10-16T11:17:08;2.40;;;1.70;;
72676;SDS011;60755;51.374;10.662;2022-10-16T11:19:39;1.30;;;1.20;;
72676;SDS011;60755;51.374;10.662;2022-10-16T11:22:12;0.90;;;0.90;;
72676;SDS011;60755;51.374;10.662;2022-10-16T11:24:47;1.30;;;1.30;;
72676;SDS011;60755;51.374;10.662;2022-10-16T11:27:19;1.00;;;1.00;;
72676;SDS011;60755;51.374;10.662;2022-10-16T11:29:53;0.90;;;0.90;;
72676;SDS011;60755;51.374;10.662;2022-10-16T11:32:25;0.85;;;0.85;;
72676;SDS011;60755;51.374;10.662;2022-10-16T11:34:59;0.90;;;0.90;;
72676;SDS011;60755;51.374;10.662;2022-10-16T11:37:31;1.00;;;1.00;;
72676;SDS011;60755;51.374;10.662;2022-10-16T11:40:09;2.92;;;1.42;;
72676;SDS011;60755;51.374;10.662;2022-10-16T11:42:46;1.85;;;0.95;;
72676;SDS011;60755;51.374;10.662;2022-10-16T11:45:21;1.95;;;0.80;;
72676;SDS011;60755;51.374;10.662;2022-10-16T11:47:54;1.10;;;1.00;;
72676;SDS011;60755;51.374;10.662;2022-10-16T11:50:28;1.55;;;1.05;;
72676;SDS011;60755;51.374;10.662;2022-10-16T11:52:59;0.90;;;0.90;;
72676;SDS011;60755;51.374;10.662;2022-10-16T11:55:31;0.90;;;0.90;;
72676;SDS011;60755;51.374;10.662;2022-10-16T11:58:01;0.70;;;0.70;;
72676;SDS011;60755;51.374;10.662;2022-10-16T12:00:34;0.80;;;0.80;;
72676;SDS011;60755;51.374;10.662;2022-10-16T12:03:10;1.05;;;0.93;;
72676;SDS011;60755;51.374;10.662;2022-10-16T12:05:49;1.00;;;1.00;;
72676;SDS011;60755;51.374;10.662;2022-10-16T12:08:24;1.33;;;0.77;;
72676;SDS011;60755;51.374;10.662;2022-10-16T12:10:54;1.50;;;0.70;;
72676;SDS011;60755;51.374;10.662;2022-10-16T12:13:33;0.80;;;0.80;;
72676;SDS011;60755;51.374;10.662;2022-10-16T12:16:05;0.82;;;0.82;;
72676;SDS011;60755;51.374;10.662;2022-10-16T12:18:33;0.80;;;0.80;;
72676;SDS011;60755;51.374;10.662;2022-10-16T12:20:59;0.70;;;0.70;;
72676;SDS011;60755;51.374;10.662;2022-10-16T12:23:30;1.00;;;1.00;;
72676;SDS011;60755;51.374;10.662;2022-10-16T12:26:00;0.80;;;0.80;;
72676;SDS011;60755;51.374;10.662;2022-10-16T12:28:28;0.77;;;0.77;;
72676;SDS011;60755;51.374;10.662;2022-10-16T12:30:56;0.63;;;0.63;;
72676;SDS011;60755;51.374;10.662;2022-10-16T12:33:25;0.88;;;0.88;;
72676;SDS011;60755;51.374;10.662;2022-10-16T12:35:53;0.85;;;0.85;;
72676;SDS011;60755;51.374;10.662;2022-10-16T12:38:20;0.70;;;0.70;;
72676;SDS011;60755;51.374;10.662;2022-10-16T12:40:55;0.85;;;0.85;;
72676;SDS011;60755;51.374;10.662;2022-10-16T12:43:34;1.05;;;1.02;;
72676;SDS011;60755;51.374;10.662;2022-10-16T12:46:04;0.80;;;0.80;;
72676;SDS011;60755;51.374;10.662;2022-10-16T12:48:46;0.77;;;0.77;;
72676;SDS011;60755;51.374;10.662;2022-10-16T12:51:21;1.92;;;0.95;;
72676;SDS011;60755;51.374;10.662;2022-10-16T12:53:57;1.00;;;0.98;;
72676;SDS011;60755;51.374;10.662;2022-10-16T12:56:26;1.85;;;0.95;;
72676;SDS011;60755;51.374;10.662;2022-10-16T12:59:04;2.08;;;1.00;;
72676;SDS011;60755;51.374;10.662;2022-10-16T13:01:48;2.53;;;0.90;;
72676;SDS011;60755;51.374;10.662;2022-10-16T13:04:31;1.17;;;1.00;;
72676;SDS011;60755;51.374;10.662;2022-10-16T13:07:19;0.93;;;0.93;;
72676;SDS011;60755;51.374;10.662;2022-10-16T13:10:00;0.90;;;0.90;;
72676;SDS011;60755;51.374;10.662;2022-10-16T13:12:40;0.88;;;0.85;;
72676;SDS011;60755;51.374;10.662;2022-10-16T13:15:24;0.95;;;0.95;;
72676;SDS011;60755;51.374;10.662;2022-10-16T13:18:00;0.88;;;0.88;;
72676;SDS011;60755;51.374;10.662;2022-10-16T13:20:35;1.25;;;0.88;;
72676;SDS011;60755;51.374;10.662;2022-10-16T13:23:19;1.00;;;1.00;;
72676;SDS011;60755;51.374;10.662;2022-10-16T13:25:55;1.15;;;1.15;;
72676;SDS011;60755;51.374;10.662;2022-10-16T13:28:34;0.77;;;0.75;;
72676;SDS011;60755;51.374;10.662;2022-10-16T13:31:05;0.90;;;0.90;;
72676;SDS011;60755;51.374;10.662;2022-10-16T13:33:40;1.40;;;1.00;;
72676;SDS011;60755;51.374;10.662;2022-10-16T13:36:17;1.45;;;1.00;;
72676;SDS011;60755;51.374;10.662;2022-10-16T13:38:45;0.90;;;0.90;;
72676;SDS011;60755;51.374;10.662;2022-10-16T13:41:13;3.28;;;0.82;;
72676;SDS011;60755;51.374;10.662;2022-10-16T13:43:41;0.80;;;0.80;;
72676;SDS011;60755;51.374;10.662;2022-10-16T13:46:14;1.00;;;0.90;;
72676;SDS011;60755;51.374;10.662;2022-10-16T13:48:41;0.77;;;0.75;;
72676;SDS011;60755;51.374;10.662;2022-10-16T13:51:11;0.90;;;0.88;;
72676;SDS011;60755;51.374;10.662;2022-10-16T13:53:39;0.90;;;0.90;;
72676;SDS011;60755;51.374;10.662;2022-10-16T13:56:07;0.70;;;0.70;;
72676;SDS011;60755;51.374;10.662;2022-10-16T13:58:37;1.85;;;0.80;;
72676;SDS011;60755;51.374;10.662;2022-10-16T14:01:04;2.28;;;1.02;;
72676;SDS011;60755;51.374;10.662;2022-10-16T14:03:33;0.90;;;0.90;;
72676;SDS011;60755;51.374;10.662;2022-10-16T14:06:02;1.30;;;1.30;;
72676;SDS011;60755;51.374;10.662;2022-10-16T14:08:30;0.77;;;0.77;;
72676;SDS011;60755;51.374;10.662;2022-10-16T14:11:20;1.23;;;1.23;;
72676;SDS011;60755;51.374;10.662;2022-10-16T14:13:48;1.83;;;1.00;;
72676;SDS011;60755;51.374;10.662;2022-10-16T14:16:16;0.70;;;0.70;;
72676;SDS011;60755;51.374;10.662;2022-10-16T14:18:49;1.35;;;0.98;;
72676;SDS011;60755;51.374;10.662;2022-10-16T14:21:21;0.90;;;0.90;;
72676;SDS011;60755;51.374;10.662;2022-10-16T14:23:48;1.00;;;1.00;;
72676;SDS011;60755;51.374;10.662;2022-10-16T14:26:16;0.98;;;0.90;;
72676;SDS011;60755;51.374;10.662;2022-10-16T14:28:45;1.02;;;1.02;;
72676;SDS011;60755;51.374;10.662;2022-10-16T14:31:24;1.05;;;1.05;;
72676;SDS011;60755;51.374;10.662;2022-10-16T14:33:54;0.80;;;0.80;;
72676;SDS011;60755;51.374;10.662;2022-10-16T14:36:21;1.00;;;1.00;;
72676;SDS011;60755;51.374;10.662;2022-10-16T14:38:49;1.20;;;1.10;;
72676;SDS011;60755;51.374;10.662;2022-10-16T14:41:22;0.80;;;0.80;;
72676;SDS011;60755;51.374;10.662;2022-10-16T14:43:50;0.88;;;0.88;;
72676;SDS011;60755;51.374;10.662;2022-10-16T14:46:19;1.52;;;1.00;;
72676;SDS011;60755;51.374;10.662;2022-10-16T14:48:51;0.77;;;0.77;;
72676;SDS011;60755;51.374;10.662;2022-10-16T14:51:26;0.88;;;0.88;;
72676;SDS011;60755;51.374;10.662;2022-10-16T14:53:53;1.27;;;1.00;;